createdAt,value
2023-04-24T00:00:27.315Z,19.00
2023-04-24T00:02:58.539Z,19.02
2023-04-24T00:05:28.840Z,18.45
2023-04-24T00:07:56.834Z,18.13
2023-04-24T00:10:25.464Z,16.90
2023-04-24T00:12:54.871Z,16.98
2023-04-24T00:15:22.641Z,16.30
2023-04-24T00:17:50.867Z,16.40
2023-04-24T00:20:18.461Z,16.38
2023-04-24T00:22:45.813Z,15.23
2023-04-24T00:25:13.224Z,16.30
2023-04-24T00:27:40.865Z,15.93
2023-04-24T00:30:10.025Z,15.43
2023-04-24T00:32:39.343Z,15.07
2023-04-24T00:35:07.672Z,14.25
2023-04-24T00:37:36.308Z,15.07
2023-04-24T00:40:04.403Z,14.48
2023-04-24T00:42:39.030Z,13.80
2023-04-24T00:45:07.347Z,13.77
2023-04-24T00:47:35.218Z,14.27
2023-04-24T00:50:07.488Z,14.52
2023-04-24T00:52:36.123Z,13.02
2023-04-24T00:55:04.543Z,14.10
2023-04-24T00:57:34.156Z,13.63
2023-04-24T01:00:01.397Z,13.65
2023-04-24T01:04:59.547Z,13.80
2023-04-24T01:07:28.982Z,13.90
2023-04-24T01:09:56.360Z,13.65
2023-04-24T01:12:23.710Z,12.73
2023-04-24T01:14:52.465Z,13.50
2023-04-24T01:19:49.036Z,13.07
2023-04-24T01:22:18.417Z,12.90
2023-04-24T01:24:52.551Z,10.70
2023-04-24T01:27:21.646Z,10.32
2023-04-24T01:29:50.669Z,10.15
2023-04-24T01:32:20.293Z,10.93
2023-04-24T01:34:49.110Z,9.95
2023-04-24T01:37:17.079Z,9.40
2023-04-24T01:39:46.520Z,9.68
2023-04-24T01:42:15.915Z,9.63
2023-04-24T01:44:43.656Z,10.50
2023-04-24T01:47:11.987Z,10.48
2023-04-24T01:49:42.736Z,11.02
2023-04-24T01:52:10.365Z,10.35
2023-04-24T01:54:37.881Z,10.80
2023-04-24T01:57:05.407Z,11.25
2023-04-24T01:59:35.994Z,11.68
2023-04-24T02:02:11.634Z,12.45
2023-04-24T02:04:39.435Z,13.02
2023-04-24T02:07:09.354Z,12.98
2023-04-24T02:09:42.636Z,13.25
2023-04-24T02:12:09.992Z,12.60
2023-04-24T02:14:37.449Z,14.07
2023-04-24T02:17:05.007Z,14.05
2023-04-24T02:19:33.441Z,14.70
2023-04-24T02:22:00.960Z,15.18
2023-04-24T02:24:28.274Z,15.30
2023-04-24T02:26:56.069Z,15.18
2023-04-24T02:29:24.867Z,15.38
2023-04-24T02:31:52.271Z,14.88
2023-04-24T02:34:20.751Z,14.10
2023-04-24T02:36:48.175Z,14.82
2023-04-24T02:39:17.745Z,15.45
2023-04-24T02:41:45.212Z,14.88
2023-04-24T02:44:13.530Z,13.85
2023-04-24T02:46:42.559Z,13.73
2023-04-24T02:49:15.787Z,13.90
2023-04-24T02:51:43.155Z,13.45
2023-04-24T02:54:13.516Z,13.43
2023-04-24T02:56:41.144Z,13.88
2023-04-24T02:59:08.565Z,13.90
2023-04-24T03:01:36.079Z,13.63
2023-04-24T03:04:05.149Z,14.07
2023-04-24T03:06:34.141Z,13.85
2023-04-24T03:09:01.501Z,14.20
2023-04-24T03:11:29.886Z,13.80
2023-04-24T03:13:57.425Z,14.15
2023-04-24T03:16:24.857Z,14.23
2023-04-24T03:18:52.258Z,13.85
2023-04-24T03:21:20.022Z,14.63
2023-04-24T03:23:52.305Z,14.88
2023-04-24T03:26:21.325Z,14.38
2023-04-24T03:28:48.739Z,14.45
2023-04-24T03:31:18.050Z,14.43
2023-04-24T03:33:45.339Z,14.73
2023-04-24T03:36:12.998Z,15.20
2023-04-24T03:38:40.223Z,15.05
2023-04-24T03:41:07.705Z,14.80
2023-04-24T03:43:41.297Z,15.43
2023-04-24T03:46:10.579Z,14.88
2023-04-24T03:48:37.717Z,14.88
2023-04-24T03:51:05.017Z,14.98
2023-04-24T03:53:32.351Z,14.88
2023-04-24T03:55:59.867Z,14.82
2023-04-24T03:58:27.276Z,15.20
2023-04-24T04:00:54.591Z,14.50
2023-04-24T04:03:22.283Z,14.57
2023-04-24T04:05:49.586Z,14.90
2023-04-24T04:08:16.949Z,15.00
2023-04-24T04:10:44.104Z,14.95
2023-04-24T04:13:11.548Z,14.88
2023-04-24T04:15:38.983Z,14.60
2023-04-24T04:18:06.888Z,14.32
2023-04-24T04:20:34.422Z,14.85
2023-04-24T04:23:01.861Z,14.75
2023-04-24T04:25:30.512Z,13.52
2023-04-24T04:27:59.679Z,14.38
2023-04-24T04:30:27.405Z,13.65
2023-04-24T04:32:55.779Z,14.68
2023-04-24T04:35:23.369Z,14.07
2023-04-24T04:37:50.621Z,14.77
2023-04-24T04:40:18.689Z,14.05
2023-04-24T04:42:47.274Z,13.63
2023-04-24T04:45:14.723Z,14.13
2023-04-24T04:47:41.995Z,13.63
2023-04-24T04:50:10.723Z,13.75
2023-04-24T04:52:38.345Z,13.35
2023-04-24T04:55:07.787Z,13.73
2023-04-24T04:57:35.182Z,14.55
2023-04-24T05:00:02.729Z,13.13
2023-04-24T05:02:30.277Z,13.70
2023-04-24T05:04:57.847Z,14.18
2023-04-24T05:07:27.238Z,13.50
2023-04-24T05:09:54.589Z,13.00
2023-04-24T05:12:22.074Z,13.70
2023-04-24T05:14:51.149Z,12.65
2023-04-24T05:17:18.678Z,12.88
2023-04-24T05:19:46.488Z,12.32
2023-04-24T05:22:14.165Z,13.02
2023-04-24T05:24:49.418Z,12.88
2023-04-24T05:27:16.658Z,12.10
2023-04-24T05:29:45.111Z,11.70
2023-04-24T05:32:12.629Z,11.10
2023-04-24T05:34:42.120Z,11.20
2023-04-24T05:37:11.263Z,10.65
2023-04-24T05:39:39.147Z,10.98
2023-04-24T05:42:08.670Z,10.55
2023-04-24T05:44:42.076Z,10.52
2023-04-24T05:47:09.535Z,10.20
2023-04-24T05:49:37.066Z,9.82
2023-04-24T05:52:05.483Z,9.85
2023-04-24T05:54:32.949Z,9.48
2023-04-24T05:57:00.368Z,9.15
2023-04-24T05:59:27.908Z,9.10
2023-04-24T06:01:55.340Z,9.32
2023-04-24T06:04:23.197Z,9.27
2023-04-24T06:06:52.174Z,8.82
2023-04-24T06:09:19.425Z,8.07
2023-04-24T06:11:47.086Z,8.07
2023-04-24T06:14:14.661Z,7.70
2023-04-24T06:16:49.547Z,7.20
2023-04-24T06:19:19.837Z,6.80
2023-04-24T06:21:47.426Z,7.20
2023-04-24T06:24:19.768Z,6.95
2023-04-24T06:26:47.347Z,7.20
2023-04-24T06:29:14.796Z,7.13
2023-04-24T06:31:42.238Z,6.60
2023-04-24T06:34:09.764Z,6.30
2023-04-24T06:36:37.141Z,6.63
2023-04-24T06:39:06.054Z,6.60
2023-04-24T06:44:24.587Z,7.63
2023-04-24T06:46:52.072Z,6.63
2023-04-24T06:49:26.423Z,7.07
2023-04-24T06:51:53.518Z,16.83
2023-04-24T06:54:22.197Z,6.63
2023-04-24T06:56:51.029Z,8.30
2023-04-24T06:59:18.576Z,6.38
2023-04-24T07:01:46.383Z,6.28
2023-04-24T07:04:14.664Z,6.43
2023-04-24T07:06:41.939Z,6.63
2023-04-24T07:09:10.699Z,6.30
2023-04-24T07:11:39.863Z,6.53
2023-04-24T07:14:07.755Z,5.50
2023-04-24T07:16:35.197Z,6.93
2023-04-24T07:19:03.216Z,6.20
2023-04-24T07:21:32.651Z,6.10
2023-04-24T07:24:01.716Z,6.30
2023-04-24T07:26:36.031Z,6.50
2023-04-24T07:29:03.395Z,6.25
2023-04-24T07:31:31.465Z,6.30
2023-04-24T07:33:59.890Z,6.13
2023-04-24T07:36:27.393Z,6.28
2023-04-24T07:38:55.836Z,6.28
2023-04-24T07:41:24.969Z,5.85
2023-04-24T07:43:53.906Z,5.78
2023-04-24T07:46:21.696Z,5.20
2023-04-24T07:48:55.812Z,5.28
2023-04-24T07:51:29.588Z,5.70
2023-04-24T07:53:56.957Z,5.93
2023-04-24T07:56:25.351Z,5.03
2023-04-24T07:58:53.818Z,8.82
2023-04-24T08:01:22.353Z,5.20
2023-04-24T08:03:52.931Z,7.03
2023-04-24T08:06:20.706Z,5.45
2023-04-24T08:08:48.262Z,9.23
2023-04-24T08:11:15.781Z,5.15
2023-04-24T08:13:43.274Z,5.60
2023-04-24T08:16:10.951Z,6.20
2023-04-24T08:18:38.265Z,11.30
2023-04-24T08:21:06.722Z,7.88
2023-04-24T08:23:35.136Z,5.80
2023-04-24T08:26:04.739Z,6.10
2023-04-24T08:28:33.060Z,5.47
2023-04-24T08:43:56.470Z,5.53
2023-04-24T08:46:24.245Z,5.75
2023-04-24T08:48:52.787Z,5.43
2023-04-24T08:51:21.799Z,5.93
2023-04-24T08:53:50.800Z,5.50
2023-04-24T08:56:18.565Z,5.70
2023-04-24T08:58:46.825Z,5.93
2023-04-24T09:01:15.438Z,5.82
2023-04-24T09:03:44.508Z,10.55
2023-04-24T09:06:13.218Z,20.35
2023-04-24T09:08:42.473Z,11.25
2023-04-24T09:11:11.826Z,12.68
2023-04-24T09:13:41.848Z,7.82
2023-04-24T09:16:16.900Z,5.55
2023-04-24T09:18:46.242Z,5.20
2023-04-24T09:21:13.844Z,5.60
2023-04-24T09:23:42.630Z,6.32
2023-04-24T09:26:11.851Z,5.53
2023-04-24T09:28:41.110Z,5.38
2023-04-24T09:31:11.639Z,5.90
2023-04-24T09:33:38.899Z,5.55
2023-04-24T09:36:07.757Z,5.70
2023-04-24T09:38:36.911Z,5.50
2023-04-24T09:41:08.551Z,5.45
2023-04-24T09:43:36.902Z,5.35
2023-04-24T09:46:11.123Z,5.90
2023-04-24T09:48:39.117Z,6.05
2023-04-24T09:51:13.654Z,5.60
2023-04-24T09:53:41.501Z,5.35
2023-04-24T09:56:14.287Z,5.15
2023-04-24T09:58:47.958Z,5.68
2023-04-24T10:01:15.112Z,5.65
2023-04-24T10:03:46.044Z,5.85
2023-04-24T10:06:14.489Z,5.72
2023-04-24T10:08:47.731Z,5.68
2023-04-24T10:11:15.953Z,6.10
2023-04-24T10:13:43.677Z,6.47
2023-04-24T10:16:12.128Z,6.28
2023-04-24T10:18:41.065Z,5.95
2023-04-24T10:21:08.848Z,5.80
2023-04-24T10:23:37.793Z,7.47
2023-04-24T10:26:05.017Z,7.63
2023-04-24T10:28:34.690Z,6.20
2023-04-24T10:31:03.113Z,6.22
2023-04-24T10:33:31.999Z,8.27
2023-04-24T10:36:00.146Z,9.35
2023-04-24T10:38:31.020Z,10.40
2023-04-24T10:41:17.672Z,11.77
2023-04-24T10:43:49.846Z,6.53
2023-04-24T10:46:22.986Z,7.00
2023-04-24T10:48:56.768Z,6.90
2023-04-24T10:53:54.565Z,7.70
2023-04-24T10:56:24.154Z,8.40
2023-04-24T10:58:53.659Z,8.30
2023-04-24T11:01:28.297Z,8.68
2023-04-24T11:04:04.517Z,9.10
2023-04-24T11:06:38.163Z,8.20
2023-04-24T11:09:10.472Z,7.80
2023-04-24T11:11:38.985Z,8.80
2023-04-24T11:14:09.613Z,10.23
2023-04-24T11:16:45.836Z,8.02
2023-04-24T11:19:20.296Z,8.40
2023-04-24T11:21:50.385Z,9.43
2023-04-24T11:24:38.531Z,7.90
2023-04-24T11:27:05.738Z,9.27
2023-04-24T11:30:06.233Z,9.43
2023-04-24T11:32:44.898Z,8.70
2023-04-24T11:35:16.385Z,9.40
2023-04-24T11:40:27.017Z,8.68
2023-04-24T11:42:58.043Z,10.17
2023-04-24T11:45:27.367Z,9.25
2023-04-24T11:47:55.961Z,9.30
2023-04-24T11:50:27.085Z,8.63
2023-04-24T11:52:54.344Z,8.13
2023-04-24T11:55:21.596Z,8.32
2023-04-24T11:57:57.827Z,12.75
2023-04-24T12:00:35.556Z,9.65
2023-04-24T12:03:14.054Z,8.10
2023-04-24T12:05:42.287Z,8.88
2023-04-24T12:08:09.682Z,7.85
2023-04-24T12:10:37.346Z,8.52
2023-04-24T12:13:04.877Z,7.65
2023-04-24T12:15:32.260Z,7.78
2023-04-24T12:18:01.703Z,7.78
2023-04-24T12:20:34.371Z,8.30
2023-04-24T12:23:05.022Z,18.50
2023-04-24T12:25:34.605Z,22.38
2023-04-24T12:28:08.091Z,19.27
2023-04-24T12:30:43.417Z,8.98
2023-04-24T12:33:11.777Z,9.75
2023-04-24T12:35:42.392Z,9.82
2023-04-24T12:38:17.571Z,7.10
2023-04-24T12:40:45.676Z,8.27
2023-04-24T12:43:17.174Z,8.80
2023-04-24T12:45:46.276Z,8.23
2023-04-24T12:48:15.560Z,8.45
2023-04-24T12:50:46.083Z,8.38
2023-04-24T12:53:14.721Z,9.05
2023-04-24T12:55:42.227Z,8.35
2023-04-24T12:58:09.755Z,8.25
2023-04-24T13:00:38.774Z,8.68
2023-04-24T13:03:06.557Z,9.43
2023-04-24T13:05:34.143Z,8.95
2023-04-24T13:08:01.664Z,8.95
2023-04-24T13:10:30.138Z,10.02
2023-04-24T13:13:05.885Z,9.63
2023-04-24T13:15:34.199Z,9.77
2023-04-24T13:18:01.809Z,9.88
2023-04-24T13:20:36.823Z,10.68
2023-04-24T13:23:04.649Z,15.52
2023-04-24T13:25:37.473Z,26.63
2023-04-24T13:28:04.721Z,10.75
2023-04-24T13:30:33.329Z,11.32
2023-04-24T13:33:02.843Z,9.00
2023-04-24T13:35:30.193Z,8.60
2023-04-24T13:37:59.567Z,9.45
2023-04-24T13:40:27.392Z,9.88
2023-04-24T13:42:54.655Z,10.45
2023-04-24T13:45:25.255Z,10.60
2023-04-24T13:47:55.139Z,11.55
2023-04-24T13:50:28.911Z,12.18
2023-04-24T13:53:02.973Z,12.38
2023-04-24T13:55:31.066Z,12.98
2023-04-24T13:58:00.521Z,14.00
2023-04-24T14:00:30.028Z,14.18
2023-04-24T14:02:59.602Z,14.63
2023-04-24T14:05:26.834Z,15.85
2023-04-24T14:07:54.247Z,15.90
2023-04-24T14:10:21.905Z,16.92
2023-04-24T14:12:50.394Z,18.02
2023-04-24T14:15:23.931Z,18.60
2023-04-24T14:17:53.390Z,18.38
2023-04-24T14:20:22.168Z,18.25
2023-04-24T14:22:49.755Z,20.20
2023-04-24T14:25:18.266Z,18.83
2023-04-24T14:27:45.802Z,20.52
2023-04-24T14:30:14.062Z,26.98
2023-04-24T14:32:41.329Z,28.73
2023-04-24T14:35:09.149Z,33.75
2023-04-24T14:37:37.556Z,25.67
2023-04-24T14:42:39.120Z,20.77
2023-04-24T14:45:09.399Z,23.35
2023-04-24T14:47:39.264Z,22.73
2023-04-24T14:50:09.605Z,23.38
2023-04-24T14:52:37.239Z,22.33
2023-04-24T14:55:04.989Z,21.73
2023-04-24T14:57:32.274Z,20.58
2023-04-24T14:59:59.715Z,21.88
2023-04-24T15:02:27.335Z,22.30
2023-04-24T15:04:55.217Z,24.90
2023-04-24T15:07:24.610Z,27.25
2023-04-24T15:09:52.172Z,23.13
2023-04-24T15:12:19.520Z,21.67
2023-04-24T15:14:47.237Z,24.30
2023-04-24T15:17:14.456Z,24.58
2023-04-24T15:19:41.874Z,22.00
2023-04-24T15:22:09.572Z,22.27
2023-04-24T15:24:41.806Z,22.95
2023-04-24T15:27:12.447Z,24.92
2023-04-24T15:29:39.984Z,23.10
2023-04-24T15:32:09.955Z,22.63
2023-04-24T15:34:38.160Z,25.45
2023-04-24T15:37:11.503Z,27.83
2023-04-24T15:39:38.857Z,30.85
2023-04-24T15:42:06.078Z,24.88
2023-04-24T15:44:39.468Z,27.23
2023-04-24T15:47:06.949Z,27.80
2023-04-24T15:49:34.445Z,27.35
2023-04-24T15:52:02.947Z,27.00
2023-04-24T15:54:30.252Z,26.52
2023-04-24T15:56:58.306Z,28.20
2023-04-24T15:59:27.240Z,29.00
2023-04-24T16:01:57.001Z,28.00
2023-04-24T16:04:25.848Z,27.73
2023-04-24T16:06:54.615Z,28.60
2023-04-24T16:09:22.214Z,29.50
2023-04-24T16:11:49.956Z,28.90
2023-04-24T16:14:17.284Z,29.08
2023-04-24T16:16:46.678Z,28.52
2023-04-24T16:19:14.228Z,28.60
2023-04-24T16:21:42.764Z,30.05
2023-04-24T16:24:09.972Z,29.20
2023-04-24T16:26:38.747Z,28.63
2023-04-24T16:29:07.461Z,29.95
2023-04-24T16:31:37.335Z,29.23
2023-04-24T16:34:05.298Z,32.63
2023-04-24T16:36:33.182Z,29.67
2023-04-24T16:39:01.795Z,33.80
2023-04-24T16:41:29.298Z,28.02
2023-04-24T16:43:57.134Z,26.35
2023-04-24T16:46:24.398Z,28.48
2023-04-24T16:48:52.102Z,28.08
2023-04-24T16:51:20.127Z,27.42
2023-04-24T16:53:47.801Z,27.15
2023-04-24T16:56:16.575Z,31.25
2023-04-24T16:58:46.067Z,27.38
2023-04-24T17:01:13.640Z,29.58
2023-04-24T17:03:41.906Z,11.40
2023-04-24T17:06:12.190Z,9.90
2023-04-24T17:08:41.134Z,8.32
2023-04-24T17:11:09.051Z,7.13
2023-04-24T17:13:38.238Z,9.05
2023-04-24T17:16:07.112Z,11.75
2023-04-24T17:18:35.180Z,15.13
2023-04-24T17:21:02.649Z,46.40
2023-04-24T17:23:36.295Z,13.73
2023-04-24T17:26:03.807Z,15.65
2023-04-24T17:28:33.422Z,15.52
2023-04-24T17:31:01.630Z,6.28
2023-04-24T17:33:31.297Z,21.67
2023-04-24T17:36:04.727Z,8.90
2023-04-24T17:38:41.224Z,9.07
2023-04-24T17:41:11.178Z,9.73
2023-04-24T17:43:38.831Z,7.40
2023-04-24T17:46:08.779Z,7.97
2023-04-24T17:48:37.047Z,19.98
2023-04-24T17:51:05.450Z,14.50
2023-04-24T17:53:33.087Z,7.28
2023-04-24T17:56:04.211Z,8.55
2023-04-24T17:58:35.286Z,8.55
2023-04-24T18:01:03.282Z,9.38
2023-04-24T18:03:31.740Z,6.40
2023-04-24T18:06:00.010Z,15.73
2023-04-24T18:08:28.907Z,11.15
2023-04-24T18:10:57.221Z,15.68
2023-04-24T18:13:27.474Z,15.38
2023-04-24T18:15:56.360Z,16.05
2023-04-24T18:18:24.295Z,11.45
2023-04-24T18:20:52.005Z,14.85
2023-04-24T18:23:21.389Z,42.15
2023-04-24T18:25:49.437Z,6.53
2023-04-24T18:28:24.063Z,19.75
2023-04-24T18:30:53.021Z,5.95
2023-04-24T18:33:20.743Z,5.20
2023-04-24T18:35:49.867Z,5.90
2023-04-24T18:38:17.982Z,6.25
2023-04-24T18:40:46.708Z,6.00
2023-04-24T18:43:16.000Z,5.22
2023-04-24T18:45:43.711Z,6.35
2023-04-24T18:48:11.431Z,10.45
2023-04-24T18:50:42.217Z,11.13
2023-04-24T18:53:10.660Z,8.70
2023-04-24T18:55:38.966Z,11.20
2023-04-24T18:58:08.204Z,10.27
2023-04-24T19:00:38.937Z,8.43
2023-04-24T19:03:09.445Z,7.40
2023-04-24T19:05:37.870Z,8.18
2023-04-24T19:08:07.213Z,12.02
2023-04-24T19:10:36.539Z,11.13
2023-04-24T19:13:04.129Z,19.00
2023-04-24T19:15:34.679Z,14.70
2023-04-24T19:18:02.938Z,10.57
2023-04-24T19:20:31.036Z,10.35
2023-04-24T19:22:59.338Z,15.52
2023-04-24T19:25:28.908Z,23.17
2023-04-24T19:27:58.509Z,14.38
2023-04-24T19:30:27.877Z,15.55
2023-04-24T19:32:56.522Z,10.77
2023-04-24T19:35:24.765Z,9.80
2023-04-24T19:37:53.758Z,7.57
2023-04-24T19:40:21.367Z,13.07
2023-04-24T19:42:49.316Z,16.25
2023-04-24T19:45:17.574Z,39.22
2023-04-24T19:47:53.104Z,14.55
2023-04-24T19:50:21.237Z,10.73
2023-04-24T19:52:50.231Z,13.68
2023-04-24T19:55:18.536Z,35.55
2023-04-24T19:57:46.660Z,35.50
2023-04-24T20:00:14.772Z,19.33
2023-04-24T20:02:44.809Z,28.80
2023-04-24T20:05:13.959Z,36.10
2023-04-24T20:07:41.770Z,35.78
2023-04-24T20:10:10.401Z,28.75
2023-04-24T20:12:40.559Z,8.20
2023-04-24T20:15:09.432Z,8.75
2023-04-24T20:17:39.169Z,8.25
2023-04-24T20:20:08.704Z,16.88
2023-04-24T20:22:41.176Z,9.38
2023-04-24T20:25:10.313Z,22.13
2023-04-24T20:27:41.304Z,19.77
2023-04-24T20:30:17.054Z,15.48
2023-04-24T20:32:45.043Z,13.88
2023-04-24T20:35:15.398Z,9.77
2023-04-24T20:37:43.207Z,9.18
2023-04-24T20:40:11.296Z,14.75
2023-04-24T20:42:38.688Z,21.25
2023-04-24T20:45:07.150Z,16.48
2023-04-24T20:47:35.164Z,12.00
2023-04-24T20:50:04.343Z,9.18
2023-04-24T20:52:33.207Z,9.45
2023-04-24T20:55:00.896Z,10.25
2023-04-24T20:57:28.138Z,11.02
2023-04-24T20:59:55.653Z,13.10
2023-04-24T21:02:23.100Z,13.80
2023-04-24T21:04:57.651Z,13.18
2023-04-24T21:07:25.197Z,14.50
2023-04-24T21:09:53.625Z,18.35
2023-04-24T21:12:22.069Z,24.90
2023-04-24T21:14:51.475Z,25.23
2023-04-24T21:17:19.594Z,15.13
2023-04-24T21:19:49.092Z,13.40
2023-04-24T21:22:16.579Z,12.98
2023-04-24T21:24:47.408Z,12.95
2023-04-24T21:27:14.596Z,13.27
2023-04-24T21:29:42.759Z,13.00
2023-04-24T21:32:10.181Z,13.10
2023-04-24T21:34:38.626Z,12.35
2023-04-24T21:37:15.683Z,13.05
2023-04-24T21:39:43.225Z,14.23
2023-04-24T21:42:10.401Z,13.40
2023-04-24T21:44:37.599Z,14.63
2023-04-24T21:47:05.198Z,14.23
2023-04-24T21:49:32.508Z,14.93
2023-04-24T21:52:00.012Z,15.93
2023-04-24T21:54:33.581Z,14.95
2023-04-24T21:57:02.586Z,14.80
2023-04-24T21:59:30.402Z,17.25
2023-04-24T22:01:58.381Z,16.92
2023-04-24T22:04:26.985Z,23.83
2023-04-24T22:06:54.686Z,14.18
2023-04-24T22:09:22.098Z,11.45
2023-04-24T22:11:49.386Z,11.68
2023-04-24T22:14:17.390Z,10.10
2023-04-24T22:16:46.429Z,11.02
2023-04-24T22:19:14.887Z,10.30
2023-04-24T22:21:42.890Z,10.50
2023-04-24T22:24:10.476Z,13.75
2023-04-24T22:26:40.107Z,19.17
2023-04-24T22:29:08.371Z,25.83
2023-04-24T22:31:36.356Z,16.92
2023-04-24T22:34:03.864Z,14.32
2023-04-24T22:36:34.287Z,13.05
2023-04-24T22:39:02.124Z,11.80
2023-04-24T22:41:32.105Z,9.02
2023-04-24T22:43:59.488Z,8.35
2023-04-24T22:46:26.800Z,6.10
2023-04-24T22:48:54.483Z,5.75
2023-04-24T22:51:21.578Z,5.40
2023-04-24T22:53:51.377Z,5.78
2023-04-24T22:56:19.115Z,5.22
2023-04-24T22:58:48.636Z,5.45
2023-04-24T23:01:18.088Z,6.25
2023-04-24T23:03:45.585Z,5.32
2023-04-24T23:06:19.238Z,5.72
2023-04-24T23:11:14.585Z,5.40
2023-04-24T23:13:43.682Z,6.15
2023-04-24T23:16:11.156Z,6.03
2023-04-24T23:18:38.609Z,6.45
2023-04-24T23:21:06.105Z,6.05
2023-04-24T23:23:33.548Z,5.88
2023-04-24T23:26:01.172Z,5.82
2023-04-24T23:28:30.641Z,5.43
2023-04-24T23:30:57.857Z,4.50
2023-04-24T23:33:25.417Z,4.53
2023-04-24T23:35:53.853Z,4.38
2023-04-24T23:38:21.309Z,4.70
2023-04-24T23:40:50.849Z,4.07
2023-04-24T23:43:18.546Z,4.07
2023-04-24T23:45:45.907Z,4.15
2023-04-24T23:48:13.236Z,3.85
2023-04-24T23:50:40.896Z,3.90
2023-04-24T23:53:08.179Z,4.20
2023-04-24T23:55:41.707Z,3.78
2023-04-24T23:58:09.674Z,3.90
